sensor_id;sensor_type;location;lat;lon;timestamp;P1;durP1;ratioP1;P2;durP2;ratioP2
77451;SDS011;66537;52.370;4.832;2023-12-07T00:01:21;20.90;;;7.40;;
77451;SDS011;66537;52.370;4.832;2023-12-07T00:03:46;19.50;;;7.50;;
77451;SDS011;66537;52.370;4.832;2023-12-07T00:06:12;16.80;;;6.53;;
77451;SDS011;66537;52.370;4.832;2023-12-07T00:08:37;15.80;;;6.50;;
77451;SDS011;66537;52.370;4.832;2023-12-07T00:11:02;17.47;;;7.77;;
77451;SDS011;66537;52.370;4.832;2023-12-07T00:13:28;16.67;;;6.90;;
77451;SDS011;66537;52.370;4.832;2023-12-07T00:15:53;17.95;;;6.88;;
77451;SDS011;66537;52.370;4.832;2023-12-07T00:18:18;16.27;;;6.93;;
77451;SDS011;66537;52.370;4.832;2023-12-07T00:20:44;16.73;;;7.85;;
77451;SDS011;66537;52.370;4.832;2023-12-07T00:23:09;17.10;;;7.43;;
77451;SDS011;66537;52.370;4.832;2023-12-07T00:25:35;20.27;;;8.00;;
77451;SDS011;66537;52.370;4.832;2023-12-07T00:28:00;14.90;;;7.13;;
77451;SDS011;66537;52.370;4.832;2023-12-07T00:30:25;17.33;;;7.37;;
77451;SDS011;66537;52.370;4.832;2023-12-07T00:32:51;19.67;;;7.13;;
77451;SDS011;66537;52.370;4.832;2023-12-07T00:35:16;16.17;;;7.67;;
77451;SDS011;66537;52.370;4.832;2023-12-07T00:37:42;15.57;;;8.15;;
77451;SDS011;66537;52.370;4.832;2023-12-07T00:40:08;15.50;;;7.55;;
77451;SDS011;66537;52.370;4.832;2023-12-07T00:42:33;14.68;;;7.70;;
77451;SDS011;66537;52.370;4.832;2023-12-07T00:45:02;19.00;;;8.10;;
77451;SDS011;66537;52.370;4.832;2023-12-07T00:47:27;16.55;;;7.68;;
77451;SDS011;66537;52.370;4.832;2023-12-07T00:49:52;16.07;;;7.47;;
77451;SDS011;66537;52.370;4.832;2023-12-07T00:52:18;16.08;;;7.35;;
77451;SDS011;66537;52.370;4.832;2023-12-07T00:54:43;16.50;;;7.27;;
77451;SDS011;66537;52.370;4.832;2023-12-07T00:57:09;17.25;;;7.53;;
77451;SDS011;66537;52.370;4.832;2023-12-07T00:59:34;18.70;;;7.45;;
77451;SDS011;66537;52.370;4.832;2023-12-07T01:02:00;17.85;;;7.65;;
77451;SDS011;66537;52.370;4.832;2023-12-07T01:04:27;15.00;;;6.82;;
77451;SDS011;66537;52.370;4.832;2023-12-07T01:06:53;12.88;;;6.82;;
77451;SDS011;66537;52.370;4.832;2023-12-07T01:09:18;15.65;;;6.95;;
77451;SDS011;66537;52.370;4.832;2023-12-07T01:11:43;18.40;;;7.33;;
77451;SDS011;66537;52.370;4.832;2023-12-07T01:14:09;18.37;;;7.70;;
77451;SDS011;66537;52.370;4.832;2023-12-07T01:16:36;15.07;;;6.65;;
77451;SDS011;66537;52.370;4.832;2023-12-07T01:19:01;14.88;;;6.72;;
77451;SDS011;66537;52.370;4.832;2023-12-07T01:21:27;16.10;;;8.25;;
77451;SDS011;66537;52.370;4.832;2023-12-07T01:23:52;14.30;;;6.40;;
77451;SDS011;66537;52.370;4.832;2023-12-07T01:26:17;16.23;;;6.93;;
77451;SDS011;66537;52.370;4.832;2023-12-07T01:28:43;15.27;;;7.15;;
77451;SDS011;66537;52.370;4.832;2023-12-07T01:31:08;13.93;;;6.83;;
77451;SDS011;66537;52.370;4.832;2023-12-07T01:33:33;13.33;;;6.10;;
77451;SDS011;66537;52.370;4.832;2023-12-07T01:35:59;14.97;;;6.90;;
77451;SDS011;66537;52.370;4.832;2023-12-07T01:38:24;18.70;;;7.40;;
77451;SDS011;66537;52.370;4.832;2023-12-07T01:40:49;15.37;;;6.67;;
77451;SDS011;66537;52.370;4.832;2023-12-07T01:43:15;20.33;;;8.40;;
77451;SDS011;66537;52.370;4.832;2023-12-07T01:45:40;13.80;;;6.77;;
77451;SDS011;66537;52.370;4.832;2023-12-07T01:48:05;19.90;;;7.17;;
77451;SDS011;66537;52.370;4.832;2023-12-07T01:50:31;15.98;;;7.10;;
77451;SDS011;66537;52.370;4.832;2023-12-07T01:52:59;16.35;;;7.13;;
77451;SDS011;66537;52.370;4.832;2023-12-07T01:55:27;14.93;;;7.57;;
77451;SDS011;66537;52.370;4.832;2023-12-07T01:57:54;14.35;;;6.60;;
77451;SDS011;66537;52.370;4.832;2023-12-07T02:00:20;17.23;;;6.60;;
77451;SDS011;66537;52.370;4.832;2023-12-07T02:02:46;13.52;;;6.53;;
77451;SDS011;66537;52.370;4.832;2023-12-07T02:05:12;15.63;;;6.47;;
77451;SDS011;66537;52.370;4.832;2023-12-07T02:07:39;17.20;;;6.15;;
77451;SDS011;66537;52.370;4.832;2023-12-07T02:10:06;12.80;;;6.80;;
77451;SDS011;66537;52.370;4.832;2023-12-07T02:12:31;14.10;;;6.70;;
77451;SDS011;66537;52.370;4.832;2023-12-07T02:14:57;16.60;;;6.13;;
77451;SDS011;66537;52.370;4.832;2023-12-07T02:20:28;14.18;;;6.63;;
77451;SDS011;66537;52.370;4.832;2023-12-07T02:23:01;12.90;;;5.88;;
77451;SDS011;66537;52.370;4.832;2023-12-07T02:25:34;12.85;;;6.00;;
77451;SDS011;66537;52.370;4.832;2023-12-07T02:28:02;19.33;;;6.90;;
77451;SDS011;66537;52.370;4.832;2023-12-07T02:30:28;15.25;;;5.93;;
77451;SDS011;66537;52.370;4.832;2023-12-07T02:32:53;14.43;;;6.57;;
77451;SDS011;66537;52.370;4.832;2023-12-07T02:35:19;13.85;;;5.63;;
77451;SDS011;66537;52.370;4.832;2023-12-07T02:37:45;14.80;;;5.82;;
77451;SDS011;66537;52.370;4.832;2023-12-07T02:40:14;13.32;;;5.93;;
77451;SDS011;66537;52.370;4.832;2023-12-07T02:42:42;17.20;;;5.47;;
77451;SDS011;66537;52.370;4.832;2023-12-07T02:45:08;15.13;;;5.78;;
77451;SDS011;66537;52.370;4.832;2023-12-07T02:47:35;12.38;;;5.25;;
77451;SDS011;66537;52.370;4.832;2023-12-07T02:50:01;12.00;;;5.22;;
77451;SDS011;66537;52.370;4.832;2023-12-07T02:52:27;13.55;;;5.70;;
77451;SDS011;66537;52.370;4.832;2023-12-07T02:54:53;14.23;;;6.45;;
77451;SDS011;66537;52.370;4.832;2023-12-07T02:57:19;11.55;;;5.35;;
77451;SDS011;66537;52.370;4.832;2023-12-07T02:59:44;13.63;;;6.03;;
77451;SDS011;66537;52.370;4.832;2023-12-07T03:02:10;14.40;;;5.68;;
77451;SDS011;66537;52.370;4.832;2023-12-07T03:04:35;12.82;;;6.32;;
77451;SDS011;66537;52.370;4.832;2023-12-07T03:07:00;11.95;;;5.20;;
77451;SDS011;66537;52.370;4.832;2023-12-07T03:09:26;13.77;;;5.53;;
77451;SDS011;66537;52.370;4.832;2023-12-07T03:11:51;11.55;;;5.88;;
77451;SDS011;66537;52.370;4.832;2023-12-07T03:14:16;13.90;;;5.60;;
77451;SDS011;66537;52.370;4.832;2023-12-07T03:16:42;14.27;;;5.60;;
77451;SDS011;66537;52.370;4.832;2023-12-07T03:19:07;13.53;;;5.43;;
77451;SDS011;66537;52.370;4.832;2023-12-07T03:21:32;14.27;;;5.63;;
77451;SDS011;66537;52.370;4.832;2023-12-07T03:23:58;12.17;;;5.53;;
77451;SDS011;66537;52.370;4.832;2023-12-07T03:26:23;13.00;;;5.45;;
77451;SDS011;66537;52.370;4.832;2023-12-07T03:28:48;14.60;;;5.80;;
77451;SDS011;66537;52.370;4.832;2023-12-07T03:31:14;13.00;;;5.53;;
77451;SDS011;66537;52.370;4.832;2023-12-07T03:33:41;13.20;;;5.70;;
77451;SDS011;66537;52.370;4.832;2023-12-07T03:36:07;15.10;;;5.82;;
77451;SDS011;66537;52.370;4.832;2023-12-07T03:38:36;13.43;;;5.50;;
77451;SDS011;66537;52.370;4.832;2023-12-07T03:41:01;14.02;;;6.50;;
77451;SDS011;66537;52.370;4.832;2023-12-07T03:43:27;13.13;;;6.15;;
77451;SDS011;66537;52.370;4.832;2023-12-07T03:45:52;13.37;;;5.83;;
77451;SDS011;66537;52.370;4.832;2023-12-07T03:48:17;14.00;;;6.57;;
77451;SDS011;66537;52.370;4.832;2023-12-07T03:50:42;15.23;;;6.33;;
77451;SDS011;66537;52.370;4.832;2023-12-07T03:53:08;18.43;;;6.93;;
77451;SDS011;66537;52.370;4.832;2023-12-07T03:55:34;15.40;;;6.78;;
77451;SDS011;66537;52.370;4.832;2023-12-07T03:58:00;13.88;;;5.82;;
77451;SDS011;66537;52.370;4.832;2023-12-07T04:00:25;13.27;;;5.83;;
77451;SDS011;66537;52.370;4.832;2023-12-07T04:02:50;16.13;;;5.90;;
77451;SDS011;66537;52.370;4.832;2023-12-07T04:05:16;14.60;;;6.50;;
77451;SDS011;66537;52.370;4.832;2023-12-07T04:07:41;16.80;;;6.67;;
77451;SDS011;66537;52.370;4.832;2023-12-07T04:10:06;15.85;;;6.93;;
77451;SDS011;66537;52.370;4.832;2023-12-07T04:12:32;15.57;;;6.82;;
77451;SDS011;66537;52.370;4.832;2023-12-07T04:14:58;13.63;;;6.57;;
77451;SDS011;66537;52.370;4.832;2023-12-07T04:17:23;19.30;;;7.70;;
77451;SDS011;66537;52.370;4.832;2023-12-07T04:19:48;17.42;;;7.50;;
77451;SDS011;66537;52.370;4.832;2023-12-07T04:22:13;17.97;;;7.27;;
77451;SDS011;66537;52.370;4.832;2023-12-07T04:24:39;17.30;;;8.02;;
77451;SDS011;66537;52.370;4.832;2023-12-07T04:27:04;18.80;;;8.13;;
77451;SDS011;66537;52.370;4.832;2023-12-07T04:29:30;23.55;;;8.80;;
77451;SDS011;66537;52.370;4.832;2023-12-07T04:31:55;18.57;;;9.13;;
77451;SDS011;66537;52.370;4.832;2023-12-07T04:34:20;26.00;;;10.47;;
77451;SDS011;66537;52.370;4.832;2023-12-07T04:36:45;23.20;;;9.27;;
77451;SDS011;66537;52.370;4.832;2023-12-07T04:39:11;23.90;;;9.70;;
77451;SDS011;66537;52.370;4.832;2023-12-07T04:41:36;21.92;;;9.10;;
77451;SDS011;66537;52.370;4.832;2023-12-07T04:44:02;23.73;;;10.48;;
77451;SDS011;66537;52.370;4.832;2023-12-07T04:46:27;24.50;;;10.83;;
77451;SDS011;66537;52.370;4.832;2023-12-07T04:48:53;22.67;;;9.68;;
77451;SDS011;66537;52.370;4.832;2023-12-07T04:51:19;21.23;;;9.27;;
77451;SDS011;66537;52.370;4.832;2023-12-07T04:53:44;22.20;;;9.90;;
77451;SDS011;66537;52.370;4.832;2023-12-07T04:56:10;22.87;;;9.10;;
77451;SDS011;66537;52.370;4.832;2023-12-07T04:58:35;21.63;;;9.77;;
77451;SDS011;66537;52.370;4.832;2023-12-07T05:01:00;19.80;;;8.95;;
77451;SDS011;66537;52.370;4.832;2023-12-07T05:03:26;21.07;;;8.50;;
77451;SDS011;66537;52.370;4.832;2023-12-07T05:05:51;20.52;;;8.88;;
77451;SDS011;66537;52.370;4.832;2023-12-07T05:08:17;22.70;;;10.32;;
77451;SDS011;66537;52.370;4.832;2023-12-07T05:10:43;15.93;;;8.27;;
77451;SDS011;66537;52.370;4.832;2023-12-07T05:13:08;22.55;;;8.88;;
77451;SDS011;66537;52.370;4.832;2023-12-07T05:15:34;20.52;;;9.35;;
77451;SDS011;66537;52.370;4.832;2023-12-07T05:17:59;19.03;;;9.40;;
77451;SDS011;66537;52.370;4.832;2023-12-07T05:20:24;22.63;;;8.60;;
77451;SDS011;66537;52.370;4.832;2023-12-07T05:22:52;19.95;;;9.07;;
77451;SDS011;66537;52.370;4.832;2023-12-07T05:25:17;17.13;;;7.97;;
77451;SDS011;66537;52.370;4.832;2023-12-07T05:27:43;18.90;;;8.68;;
77451;SDS011;66537;52.370;4.832;2023-12-07T05:30:09;24.05;;;9.68;;
77451;SDS011;66537;52.370;4.832;2023-12-07T05:32:35;21.40;;;9.75;;
77451;SDS011;66537;52.370;4.832;2023-12-07T05:35:00;17.87;;;7.73;;
77451;SDS011;66537;52.370;4.832;2023-12-07T05:37:26;20.58;;;8.40;;
77451;SDS011;66537;52.370;4.832;2023-12-07T05:39:51;20.90;;;8.30;;
77451;SDS011;66537;52.370;4.832;2023-12-07T05:42:16;22.27;;;9.50;;
77451;SDS011;66537;52.370;4.832;2023-12-07T05:44:41;21.65;;;9.02;;
77451;SDS011;66537;52.370;4.832;2023-12-07T05:47:07;20.10;;;9.53;;
77451;SDS011;66537;52.370;4.832;2023-12-07T05:49:33;18.75;;;9.15;;
77451;SDS011;66537;52.370;4.832;2023-12-07T05:51:58;19.08;;;8.75;;
77451;SDS011;66537;52.370;4.832;2023-12-07T05:54:24;19.20;;;8.32;;
77451;SDS011;66537;52.370;4.832;2023-12-07T05:56:49;20.40;;;9.38;;
77451;SDS011;66537;52.370;4.832;2023-12-07T05:59:14;18.87;;;9.03;;
77451;SDS011;66537;52.370;4.832;2023-12-07T06:01:40;20.35;;;9.57;;
77451;SDS011;66537;52.370;4.832;2023-12-07T06:04:07;23.13;;;10.65;;
77451;SDS011;66537;52.370;4.832;2023-12-07T06:06:33;18.05;;;8.63;;
77451;SDS011;66537;52.370;4.832;2023-12-07T06:08:59;21.55;;;9.85;;
77451;SDS011;66537;52.370;4.832;2023-12-07T06:11:24;20.45;;;9.52;;
77451;SDS011;66537;52.370;4.832;2023-12-07T06:13:49;23.33;;;8.97;;
77451;SDS011;66537;52.370;4.832;2023-12-07T06:16:14;22.70;;;11.40;;
77451;SDS011;66537;52.370;4.832;2023-12-07T06:18:42;23.17;;;9.43;;
77451;SDS011;66537;52.370;4.832;2023-12-07T06:21:07;24.40;;;10.82;;
77451;SDS011;66537;52.370;4.832;2023-12-07T06:23:32;25.23;;;9.73;;
77451;SDS011;66537;52.370;4.832;2023-12-07T06:25:58;24.23;;;11.43;;
77451;SDS011;66537;52.370;4.832;2023-12-07T06:28:24;28.77;;;11.63;;
77451;SDS011;66537;52.370;4.832;2023-12-07T06:30:49;31.00;;;13.63;;
77451;SDS011;66537;52.370;4.832;2023-12-07T06:33:14;32.07;;;13.07;;
77451;SDS011;66537;52.370;4.832;2023-12-07T06:35:40;29.67;;;11.77;;
77451;SDS011;66537;52.370;4.832;2023-12-07T06:38:05;29.87;;;12.23;;
77451;SDS011;66537;52.370;4.832;2023-12-07T06:40:30;31.20;;;12.63;;
77451;SDS011;66537;52.370;4.832;2023-12-07T06:42:56;35.35;;;12.75;;
77451;SDS011;66537;52.370;4.832;2023-12-07T06:45:22;29.88;;;12.95;;
77451;SDS011;66537;52.370;4.832;2023-12-07T06:47:47;29.35;;;12.55;;
77451;SDS011;66537;52.370;4.832;2023-12-07T06:50:12;31.02;;;12.73;;
77451;SDS011;66537;52.370;4.832;2023-12-07T06:52:38;30.40;;;12.95;;
77451;SDS011;66537;52.370;4.832;2023-12-07T06:55:04;26.63;;;12.20;;
77451;SDS011;66537;52.370;4.832;2023-12-07T06:57:30;24.42;;;12.02;;
77451;SDS011;66537;52.370;4.832;2023-12-07T06:59:56;26.65;;;12.60;;
77451;SDS011;66537;52.370;4.832;2023-12-07T07:02:22;27.77;;;11.00;;
77451;SDS011;66537;52.370;4.832;2023-12-07T07:04:48;26.80;;;11.25;;
77451;SDS011;66537;52.370;4.832;2023-12-07T07:07:14;26.52;;;11.23;;
77451;SDS011;66537;52.370;4.832;2023-12-07T07:09:42;24.52;;;11.00;;
77451;SDS011;66537;52.370;4.832;2023-12-07T07:12:08;24.23;;;11.05;;
77451;SDS011;66537;52.370;4.832;2023-12-07T07:14:33;25.25;;;11.48;;
77451;SDS011;66537;52.370;4.832;2023-12-07T07:16:59;23.05;;;10.50;;
77451;SDS011;66537;52.370;4.832;2023-12-07T07:19:24;25.65;;;10.90;;
77451;SDS011;66537;52.370;4.832;2023-12-07T07:21:50;31.20;;;12.82;;
77451;SDS011;66537;52.370;4.832;2023-12-07T07:24:15;37.73;;;14.93;;
77451;SDS011;66537;52.370;4.832;2023-12-07T07:26:41;32.88;;;13.50;;
77451;SDS011;66537;52.370;4.832;2023-12-07T07:29:06;36.63;;;13.60;;
77451;SDS011;66537;52.370;4.832;2023-12-07T07:31:31;34.63;;;13.63;;
77451;SDS011;66537;52.370;4.832;2023-12-07T07:33:57;64.82;;;16.70;;
77451;SDS011;66537;52.370;4.832;2023-12-07T07:36:22;43.03;;;15.47;;
77451;SDS011;66537;52.370;4.832;2023-12-07T07:38:47;44.07;;;15.33;;
77451;SDS011;66537;52.370;4.832;2023-12-07T07:41:13;51.15;;;18.00;;
77451;SDS011;66537;52.370;4.832;2023-12-07T07:43:38;76.90;;;19.20;;
77451;SDS011;66537;52.370;4.832;2023-12-07T07:46:04;49.23;;;17.27;;
77451;SDS011;66537;52.370;4.832;2023-12-07T07:48:30;50.30;;;17.00;;
77451;SDS011;66537;52.370;4.832;2023-12-07T07:50:55;45.30;;;16.35;;
77451;SDS011;66537;52.370;4.832;2023-12-07T07:53:21;38.20;;;14.95;;
77451;SDS011;66537;52.370;4.832;2023-12-07T07:55:46;44.03;;;16.17;;
77451;SDS011;66537;52.370;4.832;2023-12-07T07:58:11;36.38;;;15.13;;
77451;SDS011;66537;52.370;4.832;2023-12-07T08:00:37;37.27;;;14.67;;
77451;SDS011;66537;52.370;4.832;2023-12-07T08:03:02;38.13;;;15.02;;
77451;SDS011;66537;52.370;4.832;2023-12-07T08:05:28;40.30;;;14.27;;
77451;SDS011;66537;52.370;4.832;2023-12-07T08:07:53;54.60;;;15.87;;
77451;SDS011;66537;52.370;4.832;2023-12-07T08:10:19;36.15;;;13.50;;
77451;SDS011;66537;52.370;4.832;2023-12-07T08:12:45;37.13;;;14.65;;
77451;SDS011;66537;52.370;4.832;2023-12-07T08:15:10;35.45;;;12.90;;
77451;SDS011;66537;52.370;4.832;2023-12-07T08:17:39;36.47;;;15.25;;
77451;SDS011;66537;52.370;4.832;2023-12-07T08:20:06;43.60;;;15.63;;
77451;SDS011;66537;52.370;4.832;2023-12-07T08:22:32;37.15;;;14.93;;
77451;SDS011;66537;52.370;4.832;2023-12-07T08:24:58;54.95;;;16.02;;
77451;SDS011;66537;52.370;4.832;2023-12-07T08:27:25;39.42;;;14.02;;
77451;SDS011;66537;52.370;4.832;2023-12-07T08:29:50;63.70;;;19.42;;
77451;SDS011;66537;52.370;4.832;2023-12-07T08:32:15;37.77;;;14.00;;
77451;SDS011;66537;52.370;4.832;2023-12-07T08:34:43;36.70;;;14.07;;
77451;SDS011;66537;52.370;4.832;2023-12-07T08:37:18;48.38;;;16.00;;
77451;SDS011;66537;52.370;4.832;2023-12-07T08:39:43;47.67;;;14.23;;
77451;SDS011;66537;52.370;4.832;2023-12-07T08:42:09;44.87;;;13.47;;
77451;SDS011;66537;52.370;4.832;2023-12-07T08:44:34;45.78;;;15.43;;
77451;SDS011;66537;52.370;4.832;2023-12-07T08:47:00;40.70;;;14.50;;
77451;SDS011;66537;52.370;4.832;2023-12-07T08:49:25;47.07;;;16.60;;
77451;SDS011;66537;52.370;4.832;2023-12-07T08:51:51;36.03;;;13.63;;
77451;SDS011;66537;52.370;4.832;2023-12-07T08:54:17;35.67;;;13.85;;
77451;SDS011;66537;52.370;4.832;2023-12-07T08:56:44;36.28;;;13.60;;
77451;SDS011;66537;52.370;4.832;2023-12-07T08:59:10;35.78;;;12.32;;
77451;SDS011;66537;52.370;4.832;2023-12-07T09:01:35;34.63;;;12.53;;
77451;SDS011;66537;52.370;4.832;2023-12-07T09:04:00;34.77;;;13.83;;
77451;SDS011;66537;52.370;4.832;2023-12-07T09:06:26;29.95;;;11.63;;
77451;SDS011;66537;52.370;4.832;2023-12-07T09:08:51;37.55;;;11.80;;
77451;SDS011;66537;52.370;4.832;2023-12-07T09:11:17;37.60;;;12.20;;
77451;SDS011;66537;52.370;4.832;2023-12-07T09:13:42;28.88;;;10.63;;
77451;SDS011;66537;52.370;4.832;2023-12-07T09:16:08;28.50;;;9.98;;
77451;SDS011;66537;52.370;4.832;2023-12-07T09:18:33;46.28;;;12.93;;
77451;SDS011;66537;52.370;4.832;2023-12-07T09:21:00;34.75;;;11.98;;
77451;SDS011;66537;52.370;4.832;2023-12-07T09:23:26;39.95;;;13.25;;
77451;SDS011;66537;52.370;4.832;2023-12-07T09:25:51;34.03;;;12.43;;
77451;SDS011;66537;52.370;4.832;2023-12-07T09:28:17;30.60;;;10.60;;
77451;SDS011;66537;52.370;4.832;2023-12-07T09:30:42;45.60;;;13.95;;
77451;SDS011;66537;52.370;4.832;2023-12-07T09:33:09;31.35;;;11.45;;
77451;SDS011;66537;52.370;4.832;2023-12-07T09:35:34;36.70;;;12.48;;
77451;SDS011;66537;52.370;4.832;2023-12-07T09:38:00;29.00;;;10.15;;
77451;SDS011;66537;52.370;4.832;2023-12-07T09:40:25;35.30;;;11.00;;
77451;SDS011;66537;52.370;4.832;2023-12-07T09:42:52;31.05;;;10.38;;
77451;SDS011;66537;52.370;4.832;2023-12-07T09:45:18;29.43;;;9.80;;
77451;SDS011;66537;52.370;4.832;2023-12-07T09:47:51;27.73;;;10.50;;
77451;SDS011;66537;52.370;4.832;2023-12-07T09:50:18;25.60;;;9.10;;
77451;SDS011;66537;52.370;4.832;2023-12-07T09:52:51;36.03;;;10.60;;
77451;SDS011;66537;52.370;4.832;2023-12-07T09:55:20;29.33;;;11.18;;
77451;SDS011;66537;52.370;4.832;2023-12-07T09:57:47;27.65;;;9.70;;
77451;SDS011;66537;52.370;4.832;2023-12-07T10:00:13;38.50;;;12.18;;
77451;SDS011;66537;52.370;4.832;2023-12-07T10:02:39;23.88;;;8.98;;
77451;SDS011;66537;52.370;4.832;2023-12-07T10:05:09;33.50;;;10.00;;
77451;SDS011;66537;52.370;4.832;2023-12-07T10:07:42;40.30;;;10.95;;
77451;SDS011;66537;52.370;4.832;2023-12-07T10:10:09;55.22;;;10.48;;
77451;SDS011;66537;52.370;4.832;2023-12-07T10:12:51;26.70;;;8.43;;
77451;SDS011;66537;52.370;4.832;2023-12-07T10:15:18;24.52;;;9.32;;
77451;SDS011;66537;52.370;4.832;2023-12-07T10:17:48;29.05;;;9.25;;
77451;SDS011;66537;52.370;4.832;2023-12-07T10:20:27;29.98;;;10.05;;
77451;SDS011;66537;52.370;4.832;2023-12-07T10:23:00;38.15;;;9.07;;
77451;SDS011;66537;52.370;4.832;2023-12-07T10:25:35;24.67;;;7.65;;
77451;SDS011;66537;52.370;4.832;2023-12-07T10:28:02;23.23;;;8.27;;
77451;SDS011;66537;52.370;4.832;2023-12-07T10:30:31;21.92;;;7.93;;
77451;SDS011;66537;52.370;4.832;2023-12-07T10:32:57;19.35;;;8.20;;
77451;SDS011;66537;52.370;4.832;2023-12-07T10:35:22;28.55;;;8.80;;
77451;SDS011;66537;52.370;4.832;2023-12-07T10:37:48;36.10;;;9.05;;
77451;SDS011;66537;52.370;4.832;2023-12-07T10:40:13;24.10;;;8.00;;
77451;SDS011;66537;52.370;4.832;2023-12-07T10:42:40;24.17;;;7.50;;
77451;SDS011;66537;52.370;4.832;2023-12-07T10:45:06;45.85;;;10.05;;
77451;SDS011;66537;52.370;4.832;2023-12-07T10:47:36;29.83;;;9.00;;
77451;SDS011;66537;52.370;4.832;2023-12-07T10:52:36;37.90;;;8.02;;
77451;SDS011;66537;52.370;4.832;2023-12-07T10:55:07;26.50;;;8.63;;
77451;SDS011;66537;52.370;4.832;2023-12-07T10:57:40;25.25;;;8.13;;
77451;SDS011;66537;52.370;4.832;2023-12-07T11:00:07;25.00;;;9.63;;
77451;SDS011;66537;52.370;4.832;2023-12-07T11:02:34;22.83;;;8.52;;
77451;SDS011;66537;52.370;4.832;2023-12-07T11:05:00;38.45;;;9.45;;
77451;SDS011;66537;52.370;4.832;2023-12-07T11:07:27;29.70;;;9.00;;
77451;SDS011;66537;52.370;4.832;2023-12-07T11:10:05;27.45;;;9.73;;
77451;SDS011;66537;52.370;4.832;2023-12-07T11:12:45;23.92;;;8.48;;
77451;SDS011;66537;52.370;4.832;2023-12-07T11:15:15;34.83;;;10.18;;
77451;SDS011;66537;52.370;4.832;2023-12-07T11:17:52;31.27;;;9.60;;
77451;SDS011;66537;52.370;4.832;2023-12-07T11:20:20;22.33;;;7.97;;
77451;SDS011;66537;52.370;4.832;2023-12-07T11:22:46;23.08;;;8.13;;
77451;SDS011;66537;52.370;4.832;2023-12-07T11:25:14;26.15;;;9.10;;
77451;SDS011;66537;52.370;4.832;2023-12-07T11:27:40;30.35;;;9.18;;
77451;SDS011;66537;52.370;4.832;2023-12-07T11:30:06;23.92;;;9.23;;
77451;SDS011;66537;52.370;4.832;2023-12-07T11:32:32;29.92;;;9.82;;
77451;SDS011;66537;52.370;4.832;2023-12-07T11:35:07;29.40;;;9.10;;
77451;SDS011;66537;52.370;4.832;2023-12-07T11:38:00;31.38;;;10.20;;
77451;SDS011;66537;52.370;4.832;2023-12-07T11:40:29;26.23;;;8.73;;
77451;SDS011;66537;52.370;4.832;2023-12-07T11:42:56;23.80;;;8.10;;
77451;SDS011;66537;52.370;4.832;2023-12-07T11:45:39;25.95;;;8.75;;
77451;SDS011;66537;52.370;4.832;2023-12-07T11:48:10;25.85;;;8.98;;
77451;SDS011;66537;52.370;4.832;2023-12-07T11:50:46;28.85;;;9.77;;
77451;SDS011;66537;52.370;4.832;2023-12-07T11:53:28;28.13;;;8.50;;
77451;SDS011;66537;52.370;4.832;2023-12-07T11:55:56;24.30;;;8.82;;
77451;SDS011;66537;52.370;4.832;2023-12-07T11:58:23;27.13;;;9.85;;
77451;SDS011;66537;52.370;4.832;2023-12-07T12:00:50;27.98;;;10.07;;
77451;SDS011;66537;52.370;4.832;2023-12-07T12:03:17;22.23;;;7.97;;
77451;SDS011;66537;52.370;4.832;2023-12-07T12:05:42;24.42;;;8.00;;
77451;SDS011;66537;52.370;4.832;2023-12-07T12:08:08;26.70;;;8.93;;
77451;SDS011;66537;52.370;4.832;2023-12-07T12:10:35;24.17;;;8.48;;
77451;SDS011;66537;52.370;4.832;2023-12-07T12:13:03;31.95;;;10.90;;
77451;SDS011;66537;52.370;4.832;2023-12-07T12:15:29;27.10;;;8.85;;
77451;SDS011;66537;52.370;4.832;2023-12-07T12:17:56;25.63;;;9.57;;
77451;SDS011;66537;52.370;4.832;2023-12-07T12:20:22;26.48;;;9.27;;
77451;SDS011;66537;52.370;4.832;2023-12-07T12:22:49;25.58;;;9.07;;
77451;SDS011;66537;52.370;4.832;2023-12-07T12:25:14;26.35;;;8.77;;
77451;SDS011;66537;52.370;4.832;2023-12-07T12:27:40;25.27;;;9.45;;
77451;SDS011;66537;52.370;4.832;2023-12-07T12:30:06;34.92;;;10.73;;
77451;SDS011;66537;52.370;4.832;2023-12-07T12:32:44;24.27;;;8.60;;
77451;SDS011;66537;52.370;4.832;2023-12-07T12:35:10;28.65;;;10.13;;
77451;SDS011;66537;52.370;4.832;2023-12-07T12:37:37;24.55;;;8.30;;
77451;SDS011;66537;52.370;4.832;2023-12-07T12:40:07;27.92;;;9.68;;
77451;SDS011;66537;52.370;4.832;2023-12-07T12:42:33;26.00;;;9.30;;
77451;SDS011;66537;52.370;4.832;2023-12-07T12:44:59;26.58;;;9.10;;
77451;SDS011;66537;52.370;4.832;2023-12-07T12:47:24;25.42;;;9.07;;
77451;SDS011;66537;52.370;4.832;2023-12-07T12:49:50;26.10;;;9.18;;
77451;SDS011;66537;52.370;4.832;2023-12-07T12:52:16;28.55;;;10.23;;
77451;SDS011;66537;52.370;4.832;2023-12-07T12:54:44;29.23;;;10.25;;
77451;SDS011;66537;52.370;4.832;2023-12-07T12:57:10;29.23;;;9.70;;
77451;SDS011;66537;52.370;4.832;2023-12-07T12:59:36;32.95;;;11.27;;
77451;SDS011;66537;52.370;4.832;2023-12-07T13:02:04;28.10;;;10.73;;
77451;SDS011;66537;52.370;4.832;2023-12-07T13:04:30;30.88;;;10.32;;
77451;SDS011;66537;52.370;4.832;2023-12-07T13:06:56;30.10;;;11.93;;
77451;SDS011;66537;52.370;4.832;2023-12-07T13:09:21;32.05;;;11.18;;
77451;SDS011;66537;52.370;4.832;2023-12-07T13:11:47;32.33;;;10.68;;
77451;SDS011;66537;52.370;4.832;2023-12-07T13:14:13;35.65;;;12.30;;
77451;SDS011;66537;52.370;4.832;2023-12-07T13:16:38;30.30;;;10.38;;
77451;SDS011;66537;52.370;4.832;2023-12-07T13:19:03;34.40;;;10.83;;
77451;SDS011;66537;52.370;4.832;2023-12-07T13:21:29;30.58;;;10.38;;
77451;SDS011;66537;52.370;4.832;2023-12-07T13:23:54;34.33;;;10.53;;
77451;SDS011;66537;52.370;4.832;2023-12-07T13:26:19;26.73;;;9.80;;
77451;SDS011;66537;52.370;4.832;2023-12-07T13:28:48;29.83;;;9.70;;
77451;SDS011;66537;52.370;4.832;2023-12-07T13:31:13;37.35;;;11.50;;
77451;SDS011;66537;52.370;4.832;2023-12-07T13:33:38;35.20;;;11.80;;
77451;SDS011;66537;52.370;4.832;2023-12-07T13:36:05;37.30;;;11.32;;
77451;SDS011;66537;52.370;4.832;2023-12-07T13:38:31;35.13;;;12.23;;
77451;SDS011;66537;52.370;4.832;2023-12-07T13:40:56;31.58;;;10.48;;
77451;SDS011;66537;52.370;4.832;2023-12-07T13:43:22;36.35;;;11.80;;
77451;SDS011;66537;52.370;4.832;2023-12-07T13:45:50;38.85;;;13.10;;
77451;SDS011;66537;52.370;4.832;2023-12-07T13:48:15;35.42;;;12.35;;
77451;SDS011;66537;52.370;4.832;2023-12-07T13:50:42;34.22;;;11.20;;
77451;SDS011;66537;52.370;4.832;2023-12-07T13:53:07;30.15;;;11.18;;
77451;SDS011;66537;52.370;4.832;2023-12-07T13:55:35;35.70;;;11.50;;
77451;SDS011;66537;52.370;4.832;2023-12-07T13:58:04;39.20;;;11.45;;
77451;SDS011;66537;52.370;4.832;2023-12-07T14:00:36;31.75;;;10.93;;
77451;SDS011;66537;52.370;4.832;2023-12-07T14:03:02;53.97;;;11.55;;
77451;SDS011;66537;52.370;4.832;2023-12-07T14:05:28;32.70;;;11.63;;
77451;SDS011;66537;52.370;4.832;2023-12-07T14:07:54;30.92;;;10.85;;
77451;SDS011;66537;52.370;4.832;2023-12-07T14:10:20;33.13;;;11.15;;
77451;SDS011;66537;52.370;4.832;2023-12-07T14:12:46;38.42;;;12.18;;
77451;SDS011;66537;52.370;4.832;2023-12-07T14:15:11;36.17;;;12.93;;
77451;SDS011;66537;52.370;4.832;2023-12-07T14:17:36;30.30;;;10.30;;
77451;SDS011;66537;52.370;4.832;2023-12-07T14:20:05;36.85;;;11.55;;
77451;SDS011;66537;52.370;4.832;2023-12-07T14:22:32;36.22;;;11.23;;
77451;SDS011;66537;52.370;4.832;2023-12-07T14:24:58;38.03;;;12.88;;
77451;SDS011;66537;52.370;4.832;2023-12-07T14:27:23;35.13;;;11.38;;
77451;SDS011;66537;52.370;4.832;2023-12-07T14:29:50;38.30;;;11.75;;